»·PEaware :: N902SQ KRAL-KPHX

N902SQ :: KRAL-KPHX

FLIGHT INFORMATION

Flight Status: Arrived
Operator: Privately registered:
United States
More flights under this callsign
Pilot: Gabor H. (24209)
Aircraft: SOCATA TBM-900
(TBM9)
More flights by this aircraft type
Origin: KRAL Riverside Mun
United States
Destination: KPHX Phoenix Sky Harbor Intl
United States
More flights between these airports :: More routes between these airports
Route: RAL2 PDZ V186 NIKKL V64 BLH BLH5
File this flight plan on PilotEdge
Remarks:
Altitude:
(Current/Filed)
23,000ft
Speed:
(Current/Filed)
305kts
Departed: 13-Oct-23 04:41 PM
Arrived: 13-Oct-23 05:47 PM
Distance/Time
Traveled:
273nm/1:06
Distance/Time
To Go:
Arrived

Flight Plot

Page will automatically refresh every two minutes.

Flight plan parsing failed; only flown route is shown


Map Options




Map Legend


Flown Route
Filed Route
Departure Airport
Arrival Airport
Navaid (VOR, NDB)
Fix

Horizontal Profiles

Position Reports

Time Latitude Longitude Heading Altitude Ground
Speed
13-Oct-23 16:25 33.950232 -117.443081 106 818ft 0kts
13-Oct-23 16:26 33.950232 -117.443081 106 818ft 0kts
13-Oct-23 16:27 33.950232 -117.443081 106 818ft 0kts
13-Oct-23 16:28 33.950232 -117.443081 106 818ft 0kts
13-Oct-23 16:29 33.950232 -117.443081 106 818ft 0kts
13-Oct-23 16:30 33.950232 -117.443081 106 818ft 0kts
13-Oct-23 16:31 33.950232 -117.443081 106 818ft 0kts
13-Oct-23 16:32 33.950232 -117.443081 106 818ft 0kts
13-Oct-23 16:33 33.950232 -117.443081 106 818ft 0kts
13-Oct-23 16:34 33.950232 -117.443081 106 818ft 0kts
13-Oct-23 16:34 33.950232 -117.443081 106 818ft 0kts
13-Oct-23 16:35 33.950232 -117.443081 106 818ft 0kts
13-Oct-23 16:37 33.950538 -117.440706 74 818ft 11kts
13-Oct-23 16:38 33.950118 -117.436518 103 818ft 13kts
13-Oct-23 16:39 33.949952 -117.435133 57 818ft 0kts
13-Oct-23 16:39 33.950698 -117.435430 280 818ft 26kts
13-Oct-23 16:40 33.954518 -117.471000 266 2105ft 131kts
13-Oct-23 16:41 33.936485 -117.508100 224 4041ft 155kts
13-Oct-23 16:43 33.922221 -117.553945 334 5749ft 145kts
13-Oct-23 16:44 33.933812 -117.526999 152 7995ft 145kts
13-Oct-23 16:44 33.899108 -117.513051 146 9075ft 197kts
13-Oct-23 16:45 33.849783 -117.472446 144 10122ft 214kts
13-Oct-23 16:46 33.799636 -117.430422 146 11033ft 240kts
13-Oct-23 16:47 33.754655 -117.375963 98 12414ft 225kts
13-Oct-23 16:48 33.749724 -117.305021 93 14737ft 202kts
13-Oct-23 16:49 33.746466 -117.241883 93 17589ft 178kts
13-Oct-23 16:50 33.743377 -117.181184 94 19806ft 190kts
13-Oct-23 16:51 33.740082 -117.116837 95 22139ft 199kts
13-Oct-23 16:52 33.736149 -117.041794 94 23036ft 267kts
13-Oct-23 16:53 33.731089 -116.944723 94 22992ft 305kts
13-Oct-23 16:54 33.725570 -116.841104 94 22980ft 315kts
13-Oct-23 16:55 33.719817 -116.735146 94 22958ft 318kts
13-Oct-23 16:56 33.713959 -116.628815 94 22939ft 320kts
13-Oct-23 16:57 33.707988 -116.522191 94 22933ft 321kts
13-Oct-23 16:58 33.701906 -116.415172 94 22927ft 321kts
13-Oct-23 16:59 33.695712 -116.307793 95 22913ft 321kts
13-Oct-23 17:00 33.689442 -116.200793 95 22903ft 321kts
13-Oct-23 17:01 33.683085 -116.093834 95 22899ft 321kts
13-Oct-23 17:02 33.676631 -115.986776 95 22899ft 321kts
13-Oct-23 17:03 33.670094 -115.880044 95 22900ft 321kts
13-Oct-23 17:04 33.663456 -115.773020 95 22900ft 321kts
13-Oct-23 17:05 33.656718 -115.665938 95 22901ft 322kts
13-Oct-23 17:06 33.649888 -115.558893 95 22901ft 322kts
13-Oct-23 17:07 33.642977 -115.452012 95 22902ft 322kts
13-Oct-23 17:08 33.636011 -115.345684 96 22914ft 322kts
13-Oct-23 17:09 33.628902 -115.238616 96 22926ft 322kts
13-Oct-23 17:10 33.621696 -115.131540 96 22944ft 322kts
13-Oct-23 17:11 33.614387 -115.024241 96 22941ft 323kts
13-Oct-23 17:12 33.606976 -114.916953 96 22946ft 324kts
13-Oct-23 17:13 33.599452 -114.809217 97 22940ft 325kts
13-Oct-23 17:14 33.590776 -114.701326 98 22940ft 325kts
13-Oct-23 17:15 33.581208 -114.593682 98 22950ft 325kts
13-Oct-23 17:16 33.571511 -114.485685 98 22948ft 325kts
13-Oct-23 17:17 33.561471 -114.375182 98 22126ft 338kts
13-Oct-23 17:18 33.551157 -114.262518 98 21100ft 340kts
13-Oct-23 17:19 33.540691 -114.149502 98 19700ft 339kts
13-Oct-23 17:20 33.530269 -114.038013 97 18289ft 334kts
13-Oct-23 17:21 33.519970 -113.928823 97 16879ft 326kts
13-Oct-23 17:22 33.489567 -113.829929 120 15445ft 319kts
13-Oct-23 17:23 33.447580 -113.738432 120 14272ft 307kts
13-Oct-23 17:24 33.407022 -113.649829 120 13265ft 300kts
13-Oct-23 17:25 33.367049 -113.562696 120 12270ft 297kts
13-Oct-23 17:26 33.327488 -113.476670 120 11273ft 293kts
13-Oct-23 17:27 33.288328 -113.391733 119 10274ft 289kts
13-Oct-23 17:28 33.267572 -113.305803 88 10018ft 269kts
13-Oct-23 17:29 33.270349 -113.217425 89 10016ft 264kts
13-Oct-23 17:30 33.272709 -113.130059 89 10008ft 263kts
13-Oct-23 17:31 33.274998 -113.042741 89 10008ft 263kts
13-Oct-23 17:32 33.277217 -112.955370 89 10005ft 263kts
13-Oct-23 17:33 33.280942 -112.868122 79 9842ft 266kts
13-Oct-23 17:34 33.296509 -112.781323 78 8746ft 262kts
13-Oct-23 17:35 33.311714 -112.697738 78 7637ft 256kts
13-Oct-23 17:36 33.326456 -112.616442 78 6988ft 234kts
13-Oct-23 17:37 33.340028 -112.541235 78 6999ft 231kts
13-Oct-23 17:38 33.353538 -112.466154 77 7000ft 231kts
13-Oct-23 17:39 33.374887 -112.394535 59 6238ft 228kts
13-Oct-23 17:40 33.408842 -112.332244 30 5117ft 225kts
13-Oct-23 17:41 33.429061 -112.266706 94 4063ft 219kts
13-Oct-23 17:42 33.428753 -112.195199 90 3352ft 212kts
13-Oct-23 17:43 33.428830 -112.129535 90 2811ft 177kts
13-Oct-23 17:44 33.428823 -112.078470 91 1989ft 132kts
13-Oct-23 17:45 33.428842 -112.039283 89 1367ft 110kts
13-Oct-23 17:46 33.428665 -112.016699 143 1115ft 18kts
13-Oct-23 17:47 33.427797 -112.016835 237 1114ft 0kts
13-Oct-23 17:48 33.427151 -112.021101 179 1112ft 12kts
13-Oct-23 17:49 33.426030 -112.020030 181 1112ft 0kts
13-Oct-23 17:50 33.426030 -112.020030 181 1112ft 0kts
13-Oct-23 17:51 33.426031 -112.020030 181 1112ft 0kts
13-Oct-23 17:52 33.426031 -112.020030 181 1112ft 0kts
13-Oct-23 17:53 33.426031 -112.020030 181 1112ft 0kts
13-Oct-23 17:54 33.426031 -112.020030 181 1112ft 0kts
13-Oct-23 17:55 33.426031 -112.020030 181 1112ft 0kts
13-Oct-23 17:56 33.426031 -112.020030 181 1112ft 0kts
13-Oct-23 17:57 33.426031 -112.020030 181 1112ft 0kts
13-Oct-23 17:58 33.426031 -112.020030 181 1112ft 0kts

Navigation Log

Ident Type
Flight plan parsing failed, navigation log unavailable